Time;durP1;ratioP1;P1;durP2;ratioP2;P2;SDS_P1;SDS_P2;PMS_P1;PMS_P2;Temp;Humidity;BMP_temperature;BMP_pressure;BME280_temperature;BME280_humidity;BME280_pressure;Samples;Min_cycle;Max_cycle;Signal;HPM_P1;HPM_P2
2021/07/19 00:01:03;;;;;;;7.97;4.85;;;20.00;99.90;;;;;;4986702;28;20038;-96
2021/07/19 00:03:28;;;;;;;6.97;4.80;;;19.90;99.90;;;;;;4984731;28;20031;-96
2021/07/19 00:05:54;;;;;;;11.88;5.80;;;19.80;99.90;;;;;;4982719;28;20497;-95
2021/07/19 00:08:20;;;;;;;8.75;5.10;;;19.80;99.90;;;;;;4984299;28;20050;-96
2021/07/19 00:10:46;;;;;;;7.93;4.45;;;19.60;99.90;;;;;;4987836;28;20035;-96
2021/07/19 00:13:12;;;;;;;7.85;5.38;;;19.50;99.90;;;;;;4987485;28;20111;-96
2021/07/19 00:15:39;;;;;;;7.90;4.90;;;19.50;99.90;;;;;;4988780;28;20215;-96
2021/07/19 00:18:04;;;;;;;10.73;5.20;;;19.40;99.90;;;;;;4977017;28;20045;-96
2021/07/19 00:20:30;;;;;;;8.00;4.68;;;19.40;99.90;;;;;;4971563;28;20046;-96
2021/07/19 00:22:56;;;;;;;8.38;4.60;;;19.40;99.90;;;;;;4969049;28;20027;-96
2021/07/19 00:25:24;;;;;;;6.95;4.55;;;19.30;99.90;;;;;;4966895;28;20118;-96
2021/07/19 00:27:55;;;;;;;8.02;4.97;;;19.30;99.90;;;;;;4971143;28;20103;-96
2021/07/19 00:30:20;;;;;;;;;;;19.20;99.90;;;;;;4971528;28;20027;-96
2021/07/19 00:32:46;;;;;;;6.25;4.78;;;19.20;99.90;;;;;;4972196;28;19906;-96
2021/07/19 00:35:13;;;;;;;10.10;4.55;;;19.20;99.90;;;;;;4973256;28;20106;-96
2021/07/19 00:37:42;;;;;;;6.90;4.53;;;19.20;99.90;;;;;;4954517;29;20504;-96
2021/07/19 00:40:28;;;;;;;7.35;4.65;;;19.10;99.90;;;;;;4972392;29;20011;-96
2021/07/19 00:42:55;;;;;;;9.15;4.43;;;19.10;99.90;;;;;;4960774;28;20023;-96
2021/07/19 00:45:25;;;;;;;6.63;4.78;;;19.10;99.90;;;;;;4973013;28;20031;-96
2021/07/19 00:47:53;;;;;;;12.30;4.55;;;19.10;99.90;;;;;;4974179;28;20065;-95
2021/07/19 00:50:20;;;;;;;10.10;4.60;;;19.10;99.90;;;;;;4974693;28;20033;-96
2021/07/19 00:52:47;;;;;;;8.93;4.60;;;19.10;99.90;;;;;;4970309;28;20038;-96
2021/07/19 00:55:16;;;;;;;7.60;4.80;;;19.00;99.90;;;;;;4970694;28;20019;-96
2021/07/19 00:57:48;;;;;;;7.10;4.32;;;19.00;99.90;;;;;;4971679;28;20066;-96
2021/07/19 01:00:16;;;;;;;8.65;4.53;;;19.00;99.90;;;;;;4964449;28;20026;-96
2021/07/19 01:02:49;;;;;;;10.18;4.95;;;19.00;99.90;;;;;;4973043;28;20106;-96
2021/07/19 01:05:19;;;;;;;7.03;4.63;;;19.00;99.90;;;;;;4968356;28;20033;-96
2021/07/19 01:07:51;;;;;;;7.78;4.97;;;18.90;99.90;;;;;;4976463;28;20019;-96
2021/07/19 01:10:22;;;;;;;6.93;4.63;;;18.80;99.90;;;;;;4961592;28;20035;-96
2021/07/19 01:12:53;;;;;;;9.32;5.00;;;18.80;99.90;;;;;;4961765;28;20023;-96
2021/07/19 01:15:24;;;;;;;9.63;4.78;;;18.70;99.90;;;;;;4976301;28;20031;-96
2021/07/19 01:17:51;;;;;;;8.05;4.93;;;18.70;99.90;;;;;;4990708;28;20071;-96
2021/07/19 01:20:26;;;;;;;9.00;4.60;;;18.60;99.90;;;;;;4988872;28;20047;-96
2021/07/19 01:23:32;;;;;;;7.97;5.10;;;18.60;99.90;;;;;;4994733;28;20035;-96
2021/07/19 01:26:36;;;;;;;6.88;4.53;;;18.50;99.90;;;;;;4993359;28;20094;-96
2021/07/19 01:29:03;;;;;;;8.25;5.28;;;18.50;99.90;;;;;;4994418;28;20090;-96
2021/07/19 01:31:32;;;;;;;8.25;4.88;;;18.50;99.90;;;;;;4995955;28;20033;-96
2021/07/19 01:34:01;;;;;;;8.20;4.43;;;18.40;99.90;;;;;;4995747;28;20026;-96
2021/07/19 01:36:30;;;;;;;7.13;4.72;;;18.30;99.90;;;;;;4992732;28;20053;-96
2021/07/19 01:39:07;;;;;;;8.50;5.30;;;18.30;99.90;;;;;;5005547;28;20066;-96
2021/07/19 01:41:36;;;;;;;10.00;5.30;;;18.30;99.90;;;;;;4995218;28;20035;-96
2021/07/19 01:44:03;;;;;;;7.97;4.90;;;18.30;99.90;;;;;;4995799;28;20021;-96
2021/07/19 01:47:00;;;;;;;7.80;4.70;;;18.30;99.90;;;;;;4997402;28;20026;-96
2021/07/19 01:49:32;;;;;;;10.00;4.65;;;18.20;99.90;;;;;;4996409;28;20023;-96
2021/07/19 01:52:05;;;;;;;10.20;4.72;;;18.30;99.90;;;;;;4979639;28;20031;-95
2021/07/19 01:54:54;;;;;;;8.35;4.85;;;18.20;99.90;;;;;;4994827;28;20044;-96
2021/07/19 01:57:27;;;;;;;6.93;4.60;;;18.20;99.90;;;;;;4996826;28;20047;-96
2021/07/19 02:00:14;;;;;;;8.20;4.95;;;18.10;99.90;;;;;;4995892;28;20054;-96
2021/07/19 02:02:40;;;;;;;9.00;5.00;;;18.10;99.90;;;;;;4993638;28;20022;-95
2021/07/19 02:05:22;;;;;;;5.60;4.50;;;18.00;99.90;;;;;;4998355;28;20042;-95
2021/07/19 02:07:53;;;;;;;6.65;4.07;;;18.00;99.90;;;;;;4982760;28;20098;-96
2021/07/19 02:10:31;;;;;;;6.70;4.53;;;17.90;99.90;;;;;;4995009;28;20019;-96
2021/07/19 02:13:27;;;;;;;8.50;4.60;;;17.90;99.90;;;;;;4996580;28;20023;-96
2021/07/19 02:15:57;;;;;;;10.50;5.03;;;17.80;99.90;;;;;;5183684;23;20070;-96
2021/07/19 02:18:29;;;;;;;12.75;5.97;;;17.80;99.90;;;;;;5149986;23;20042;-96
2021/07/19 02:21:04;;;;;;;8.75;4.80;;;17.80;99.90;;;;;;4960587;28;20031;-96
2021/07/19 02:29:04;;;;;;;6.32;4.78;;;17.70;99.90;;;;;;5135664;23;20059;-96
2021/07/19 02:31:35;;;;;;;8.23;4.75;;;17.60;99.90;;;;;;4981036;28;20027;-96
2021/07/19 02:34:01;;;;;;;10.38;5.10;;;17.60;99.90;;;;;;4997496;28;20043;-96
2021/07/19 02:36:28;;;;;;;7.38;4.55;;;17.60;99.90;;;;;;4981588;28;20059;-96
2021/07/19 02:38:55;;;;;;;7.03;4.72;;;17.50;99.90;;;;;;4983433;28;20047;-96
2021/07/19 02:41:23;;;;;;;12.13;5.55;;;17.50;99.90;;;;;;4981805;28;20027;-96
2021/07/19 02:43:53;;;;;;;7.50;4.82;;;17.50;99.90;;;;;;4997237;28;20027;-96
2021/07/19 02:46:23;;;;;;;7.50;4.82;;;17.50;99.90;;;;;;4981194;28;20015;-96
2021/07/19 02:48:57;;;;;;;7.65;5.28;;;17.50;99.90;;;;;;4981978;28;20050;-96
2021/07/19 02:51:25;;;;;;;9.02;5.10;;;17.50;99.90;;;;;;4970532;28;20038;-96
2021/07/19 02:53:57;;;;;;;5.63;4.68;;;17.40;99.90;;;;;;4982271;28;20035;-96
2021/07/19 02:56:27;;;;;;;12.65;6.35;;;17.40;99.90;;;;;;4963494;29;20035;-95
2021/07/19 02:59:04;;;;;;;6.55;4.82;;;17.40;99.90;;;;;;4963469;29;20041;-96
2021/07/19 03:01:34;;;;;;;7.65;4.95;;;17.30;99.90;;;;;;4985590;28;20011;-96
2021/07/19 03:04:07;;;;;;;9.18;5.30;;;17.20;99.90;;;;;;4983523;28;20015;-96
2021/07/19 03:06:40;;;;;;;7.13;4.97;;;17.20;99.90;;;;;;4983032;28;20035;-96
2021/07/19 03:09:39;;;;;;;9.73;4.82;;;17.10;99.90;;;;;;4981279;28;20026;-96
2021/07/19 03:12:08;;;;;;;7.88;5.03;;;17.00;99.90;;;;;;4999555;28;20035;-96
2021/07/19 03:14:49;;;;;;;8.13;5.18;;;17.00;99.90;;;;;;4980959;28;20112;-96
2021/07/19 03:17:51;;;;;;;8.43;4.78;;;17.00;99.90;;;;;;4982979;28;20038;-96
2021/07/19 03:20:43;;;;;;;7.07;4.78;;;17.00;99.90;;;;;;4971943;28;20030;-96
2021/07/19 03:23:18;;;;;;;7.03;5.22;;;17.00;99.90;;;;;;4961823;29;20045;-96
2021/07/19 03:26:06;;;;;;;8.85;4.68;;;17.00;99.90;;;;;;4961049;29;20031;-96
2021/07/19 03:29:05;;;;;;;6.75;4.97;;;17.00;99.90;;;;;;4978849;28;20039;-96
2021/07/19 03:32:00;;;;;;;8.82;5.88;;;17.00;99.90;;;;;;4960008;29;20032;-96
2021/07/19 03:34:32;;;;;;;6.22;4.68;;;16.90;99.90;;;;;;4978214;29;20087;-96
2021/07/19 03:43:43;;;;;;;9.60;4.90;;;16.70;99.90;;;;;;4978860;28;20042;-96
2021/07/19 03:46:10;;;;;;;10.52;5.03;;;16.70;99.90;;;;;;4962509;29;20145;-96
2021/07/19 03:49:14;;;;;;;9.48;4.53;;;16.70;99.90;;;;;;4961958;28;20031;-96
2021/07/19 03:51:55;;;;;;;10.15;5.03;;;16.70;99.90;;;;;;4979351;29;20039;-96
2021/07/19 03:54:47;;;;;;;9.35;5.35;;;16.70;99.90;;;;;;4966145;29;20035;-96
2021/07/19 03:57:33;;;;;;;9.93;4.95;;;16.70;99.90;;;;;;4963218;29;20027;-96
2021/07/19 04:09:20;;;;;;;11.30;5.13;;;16.60;99.90;;;;;;5026567;23;20039;-96
2021/07/19 04:11:53;;;;;;;8.23;4.90;;;16.60;99.90;;;;;;4961937;29;20038;-95
2021/07/19 04:14:23;;;;;;;8.27;4.72;;;16.60;99.90;;;;;;4958147;29;20036;-96
2021/07/19 04:16:55;;;;;;;6.22;4.18;;;16.60;99.90;;;;;;4942989;29;20036;-95
2021/07/19 04:19:25;;;;;;;9.48;5.30;;;16.50;99.90;;;;;;4932288;29;20015;-96
2021/07/19 04:21:52;;;;;;;;;;;16.40;99.90;;;;;;4961135;29;20062;-95
2021/07/19 04:25:25;;;;;;;6.85;5.00;;;16.40;99.90;;;;;;4980023;28;19909;-95
2021/07/19 04:28:25;;;;;;;8.18;4.50;;;16.30;99.90;;;;;;4980116;28;20023;-95
2021/07/19 04:36:04;;;;;;;8.35;5.00;;;16.10;99.90;;;;;;5119711;23;20058;-96
2021/07/19 04:38:30;;;;;;;7.30;5.00;;;16.10;99.90;;;;;;4972497;28;20047;-96
2021/07/19 04:40:57;;;;;;;8.77;4.88;;;16.10;99.90;;;;;;4980641;28;20022;-96
2021/07/19 04:43:27;;;;;;;5.93;4.20;;;16.10;99.90;;;;;;4979829;28;20026;-96
2021/07/19 04:45:57;;;;;;;8.88;5.25;;;16.10;99.90;;;;;;4997301;28;20018;-96
2021/07/19 04:48:23;;;;;;;8.48;4.95;;;16.10;99.90;;;;;;4982249;28;20078;-96
2021/07/19 05:16:57;;;;;;;9.45;4.95;;;16.00;99.90;;;;;;4997193;28;20143;-96
2021/07/19 05:19:25;;;;;;;8.00;5.65;;;16.00;99.90;;;;;;5407385;23;20065;-95
2021/07/19 05:21:53;;;;;;;8.82;6.05;;;15.90;99.90;;;;;;4976741;28;20019;-96
2021/07/19 05:25:06;;;;;;;9.02;6.38;;;15.80;99.90;;;;;;4965328;28;20035;-96
2021/07/19 05:28:11;;;;;;;6.47;5.28;;;15.80;99.90;;;;;;4990719;28;20045;-96
2021/07/19 05:30:45;;;;;;;9.18;5.95;;;15.80;99.90;;;;;;4960551;29;20099;-96
2021/07/19 05:33:27;;;;;;;11.15;6.18;;;15.80;99.90;;;;;;4973491;29;20039;-96
2021/07/19 05:49:38;;;;;;;10.10;6.05;;;15.90;99.90;;;;;;6093635;23;20033;31
2021/07/19 05:52:04;;;;;;;7.78;5.88;;;15.90;99.90;;;;;;4954209;29;20048;-95
2021/07/19 07:39:11;;;;;;;8.82;4.72;;;19.80;99.90;;;;;;2605632;23;21519;-96
2021/07/19 07:44:28;;;;;;;7.75;3.85;;;20.10;99.90;;;;;;4985072;23;20059;-96
2021/07/19 07:46:53;;;;;;;5.88;2.78;;;20.30;99.90;;;;;;4944930;28;20035;-95
2021/07/19 07:49:21;;;;;;;5.65;3.38;;;20.40;99.90;;;;;;4960476;28;20057;-94
2021/07/19 07:51:47;;;;;;;6.60;2.85;;;20.50;99.90;;;;;;4960695;28;20162;-95
2021/07/19 07:54:12;;;;;;;4.13;2.80;;;20.70;99.90;;;;;;4966503;28;20034;-95
2021/07/19 07:56:38;;;;;;;8.70;2.53;;;20.80;99.90;;;;;;4961791;28;20030;-95
2021/07/19 07:59:04;;;;;;;7.03;2.50;;;21.00;99.90;;;;;;4967678;28;20400;-96
2021/07/19 08:01:30;;;;;;;5.47;2.90;;;21.10;99.90;;;;;;4965848;28;20445;-96
2021/07/19 08:03:56;;;;;;;4.35;2.75;;;21.20;99.90;;;;;;4984892;28;20054;-96
2021/07/19 08:06:22;;;;;;;3.30;2.17;;;21.40;99.90;;;;;;4964438;28;20078;-95
2021/07/19 08:08:47;;;;;;;3.35;2.38;;;21.50;99.90;;;;;;4963532;28;20026;-95
2021/07/19 08:11:13;;;;;;;6.15;2.00;;;21.60;99.90;;;;;;4964361;28;20596;-96
2021/07/19 08:13:40;;;;;;;4.72;2.38;;;21.80;99.90;;;;;;4969067;28;20027;-96
2021/07/19 08:16:07;;;;;;;13.27;2.45;;;21.90;99.90;;;;;;4967425;28;20026;-95
2021/07/19 08:18:36;;;;;;;7.95;2.42;;;22.00;99.90;;;;;;4967531;28;20038;-96
2021/07/19 08:21:02;;;;;;;5.32;2.20;;;22.20;99.90;;;;;;4968179;28;20041;-96
2021/07/19 08:23:28;;;;;;;5.95;2.65;;;22.30;99.90;;;;;;4966715;28;20026;-96
2021/07/19 08:25:53;;;;;;;5.95;2.33;;;22.50;99.90;;;;;;4971414;28;20070;-96
2021/07/19 08:28:20;;;;;;;2.63;1.67;;;22.60;99.40;;;;;;4990105;28;20031;-96
2021/07/19 08:30:46;;;;;;;4.25;1.80;;;22.80;98.30;;;;;;4971386;28;20126;-96
2021/07/19 08:33:12;;;;;;;3.42;1.70;;;22.90;97.40;;;;;;4976524;28;20035;-96
2021/07/19 08:35:39;;;;;;;6.30;1.80;;;23.00;96.40;;;;;;4975177;28;20095;-96
2021/07/19 08:38:07;;;;;;;5.03;1.75;;;23.10;94.80;;;;;;4975525;28;20031;-96
2021/07/19 08:40:34;;;;;;;3.30;1.67;;;23.30;93.90;;;;;;4973796;28;20027;-96
2021/07/19 08:43:04;;;;;;;5.55;1.58;;;23.40;93.00;;;;;;4976809;28;20030;-96
2021/07/19 08:45:30;;;;;;;4.85;1.85;;;23.50;92.40;;;;;;4980699;28;20051;-96
2021/07/19 08:47:58;;;;;;;4.53;1.73;;;23.70;91.60;;;;;;4954181;29;20070;-96
2021/07/19 08:50:37;;;;;;;5.32;1.70;;;23.80;90.90;;;;;;4955674;29;20024;-96
2021/07/19 08:53:03;;;;;;;4.97;3.10;;;24.00;90.20;;;;;;5041540;23;20057;-96
2021/07/19 08:55:31;;;;;;;3.83;2.00;;;24.10;88.80;;;;;;4991953;28;20121;-96
2021/07/19 08:58:00;;;;;;;6.20;1.90;;;24.20;87.60;;;;;;4988397;28;20030;-96
2021/07/19 09:00:27;;;;;;;6.50;1.88;;;24.40;86.30;;;;;;4956253;28;20035;-96
2021/07/19 09:02:55;;;;;;;4.90;2.13;;;24.50;85.40;;;;;;4991178;28;20034;-96
2021/07/19 09:05:22;;;;;;;6.13;1.92;;;24.60;84.30;;;;;;4994120;28;20030;-96
2021/07/19 09:07:50;;;;;;;9.27;2.13;;;24.80;83.50;;;;;;4977841;28;20098;-96
2021/07/19 09:10:33;;;;;;;6.43;2.10;;;24.90;82.20;;;;;;4996025;28;20018;-96
2021/07/19 09:13:00;;;;;;;5.57;2.25;;;25.10;81.30;;;;;;4995062;28;20106;-96
2021/07/19 09:15:35;;;;;;;6.72;2.10;;;25.20;80.80;;;;;;4991446;28;20061;-96
2021/07/19 09:18:04;;;;;;;7.78;1.92;;;25.40;80.40;;;;;;4991933;28;20027;-96
2021/07/19 09:20:37;;;;;;;8.82;2.33;;;25.50;79.00;;;;;;4991193;28;20031;-96
2021/07/19 09:23:29;;;;;;;5.38;2.10;;;25.70;78.30;;;;;;4995253;28;20023;-96
2021/07/19 09:26:11;;;;;;;5.80;2.10;;;25.80;77.40;;;;;;4990879;28;20035;-95
2021/07/19 09:28:44;;;;;;;7.75;2.00;;;26.00;77.00;;;;;;4993665;28;20046;-96
2021/07/19 09:31:24;;;;;;;6.03;2.17;;;26.20;76.50;;;;;;4997601;28;20023;-95
2021/07/19 09:34:15;;;;;;;7.32;2.10;;;26.30;75.90;;;;;;4981208;28;20107;-96
2021/07/19 09:40:15;;;;;;;5.13;2.28;;;26.70;73.90;;;;;;4997637;28;20057;-96
2021/07/19 09:42:44;;;;;;;6.93;2.17;;;26.80;73.10;;;;;;4997824;28;20038;-96
2021/07/19 09:45:40;;;;;;;4.72;2.20;;;26.90;72.70;;;;;;4995001;28;20011;-96
2021/07/19 10:07:51;;;;;;;7.93;2.85;;;27.90;68.40;;;;;;5234323;23;20051;-95
2021/07/19 10:10:17;;;;;;;9.48;2.45;;;28.00;68.30;;;;;;4973669;28;20022;-93
2021/07/19 10:12:43;;;;;;;7.18;2.60;;;28.20;68.20;;;;;;4974166;28;20042;-94
2021/07/19 10:15:12;;;;;;;8.18;2.47;;;28.30;67.50;;;;;;5101058;23;20358;-96
2021/07/19 10:26:05;;;;;;;17.48;2.88;;;28.50;67.00;;;;;;5686274;23;20054;-92
2021/07/19 10:36:23;;;;;;;11.73;2.65;;;28.50;67.10;;;;;;5229819;23;20058;-95
2021/07/19 11:03:40;;;;;;;10.43;3.10;;;28.90;65.60;;;;;;4997885;28;20420;-95
2021/07/19 11:06:06;;;;;;;6.30;2.38;;;29.10;65.30;;;;;;4997263;28;20030;-95
2021/07/19 11:08:32;;;;;;;4.35;2.70;;;29.20;65.00;;;;;;4999100;28;20045;-96
2021/07/19 11:11:00;;;;;;;4.47;2.63;;;29.30;64.90;;;;;;5000518;28;20030;-95
2021/07/19 11:13:40;;;;;;;5.30;2.72;;;29.50;64.70;;;;;;4997752;28;20026;-96
2021/07/19 11:16:27;;;;;;;9.60;3.15;;;29.60;63.50;;;;;;5001426;28;20019;-95
2021/07/19 11:19:28;;;;;;;5.85;2.58;;;29.80;63.00;;;;;;5002801;28;20022;-96
2021/07/19 11:22:10;;;;;;;5.80;2.28;;;30.00;62.30;;;;;;5342765;23;20074;-95
2021/07/19 11:24:47;;;;;;;3.65;2.42;;;30.10;61.90;;;;;;5191678;23;20069;-96
2021/07/19 11:27:20;;;;;;;8.13;2.92;;;30.20;61.60;;;;;;5245384;23;20116;-96
2021/07/19 11:29:46;;;;;;;5.13;3.05;;;30.30;61.10;;;;;;4995975;28;20037;-96
2021/07/19 11:32:18;;;;;;;10.30;2.78;;;30.30;60.80;;;;;;4977273;28;20082;-95
2021/07/19 11:39:55;;;;;;;8.00;2.70;;;30.10;61.20;;;;;;5655674;23;20063;-96
2021/07/19 11:42:40;;;;;;;8.32;2.65;;;30.30;60.90;;;;;;4974501;28;20100;-96
2021/07/19 11:45:11;;;;;;;7.60;3.03;;;30.40;60.10;;;;;;4980322;28;20031;-96
2021/07/19 11:47:52;;;;;;;6.32;2.42;;;30.60;60.10;;;;;;4978895;28;20069;-96
2021/07/19 11:50:25;;;;;;;7.45;2.58;;;30.80;59.90;;;;;;4980440;28;20062;-96
2021/07/19 11:53:00;;;;;;;9.55;2.70;;;30.80;59.40;;;;;;5019461;23;20078;-96
2021/07/19 11:55:26;;;;;;;8.57;2.65;;;30.60;59.20;;;;;;4963634;28;20031;-96
2021/07/19 11:58:00;;;;;;;9.30;3.13;;;30.60;59.60;;;;;;4962586;28;20093;-96
2021/07/19 12:00:27;;;;;;;8.63;2.92;;;30.70;59.60;;;;;;4963004;28;20015;-96
2021/07/19 12:05:30;;;;;;;5.80;2.63;;;31.30;59.00;;;;;;5245696;23;20039;-96
2021/07/19 12:10:37;;;;;;;7.88;2.80;;;31.70;57.70;;;;;;5308265;23;20065;-96
2021/07/19 12:13:20;;;;;;;8.20;3.00;;;32.00;57.00;;;;;;5663589;23;20041;-96
2021/07/19 12:15:55;;;;;;;4.75;2.30;;;32.10;56.80;;;;;;4959179;29;20042;-96
2021/07/19 12:18:32;;;;;;;9.57;2.45;;;32.30;56.80;;;;;;4954707;29;20012;-96
2021/07/19 12:26:16;;;;;;;6.32;2.60;;;32.70;55.30;;;;;;5436783;23;21182;-96
2021/07/19 12:29:01;;;;;;;5.45;2.90;;;32.80;55.20;;;;;;5009898;23;20051;-96
2021/07/19 12:51:28;;;;;;;5.15;2.70;;;33.00;53.60;;;;;;5288144;23;20106;-95
2021/07/19 12:54:06;;;;;;;4.32;2.33;;;33.10;53.50;;;;;;5498389;23;20017;-96
2021/07/19 13:09:40;;;;;;;7.28;2.47;;;34.10;51.50;;;;;;5800352;23;20070;-95
2021/07/19 13:12:07;;;;;;;;;;;34.10;51.00;;;;;;5267561;23;20039;-96
2021/07/19 15:30:41;;;;;;;7.95;3.28;;;32.90;53.50;;;;;;5267669;23;20033;-94
2021/07/19 15:35:50;;;;;;;7.32;3.08;;;32.60;53.30;;;;;;5110039;23;20051;-96
2021/07/19 15:51:56;;;;;;;7.30;3.13;;;31.40;55.30;;;;;;5392825;23;20054;-96
2021/07/19 15:54:22;;;;;;;14.95;3.50;;;31.30;55.60;;;;;;4961347;29;20039;-95
2021/07/19 15:56:48;;;;;;;8.25;3.38;;;31.20;55.70;;;;;;5040918;23;20049;-96
2021/07/19 15:59:14;;;;;;;4.05;2.88;;;31.30;55.60;;;;;;4985498;28;20042;-96
2021/07/19 16:01:41;;;;;;;8.70;3.08;;;31.20;55.20;;;;;;4986065;28;20050;-95
2021/07/19 16:04:07;;;;;;;5.82;2.63;;;31.20;55.30;;;;;;4982756;28;20117;-95
2021/07/19 16:06:33;;;;;;;11.00;3.15;;;31.30;55.20;;;;;;4984795;28;20030;-96
2021/07/19 16:08:59;;;;;;;6.45;2.80;;;31.40;54.90;;;;;;4985312;28;20023;-95
2021/07/19 16:11:28;;;;;;;6.93;2.80;;;31.40;55.10;;;;;;4984939;28;20166;-96
2021/07/19 16:13:54;;;;;;;7.00;2.97;;;31.30;55.60;;;;;;4988928;28;20027;-96
2021/07/19 16:16:19;;;;;;;5.75;3.00;;;31.10;56.10;;;;;;4989878;28;20027;-95
2021/07/19 16:18:49;;;;;;;9.15;3.08;;;31.10;56.60;;;;;;4990924;28;20445;-96
2021/07/19 16:21:28;;;;;;;6.00;2.92;;;31.20;56.70;;;;;;4990484;28;20031;-96
2021/07/19 16:23:55;;;;;;;7.15;3.10;;;31.30;56.50;;;;;;4992874;28;20122;-96
2021/07/19 16:26:21;;;;;;;4.40;2.70;;;31.50;56.60;;;;;;4990083;28;20022;-96
2021/07/19 16:28:52;;;;;;;9.80;3.00;;;31.70;56.90;;;;;;4976564;28;20039;-96
2021/07/19 16:31:37;;;;;;;6.00;2.65;;;31.80;55.80;;;;;;4990386;28;20035;-96
2021/07/19 16:34:04;;;;;;;10.68;2.60;;;31.80;55.70;;;;;;4993293;28;20417;-95
2021/07/19 16:36:30;;;;;;;7.93;3.13;;;31.70;55.30;;;;;;4992433;28;20037;-96
2021/07/19 16:41:26;;;;;;;9.73;3.10;;;31.30;56.00;;;;;;5015166;28;20054;-96
2021/07/19 16:43:57;;;;;;;5.35;2.80;;;31.10;56.40;;;;;;5173004;23;20050;-96
2021/07/19 16:51:36;;;;;;;8.50;3.33;;;30.70;57.50;;;;;;5393927;23;20078;-96
2021/07/19 17:05:26;;;;;;;6.88;2.78;;;30.20;59.00;;;;;;4996754;28;20042;-95
2021/07/19 17:07:59;;;;;;;7.72;2.70;;;30.20;59.10;;;;;;4982822;28;20054;-94
2021/07/19 17:10:25;;;;;;;7.60;2.65;;;30.20;59.20;;;;;;5196748;23;20080;-96
2021/07/19 17:12:53;;;;;;;5.85;3.00;;;30.20;59.10;;;;;;5023697;23;20054;-96
2021/07/19 17:15:19;;;;;;;7.93;2.83;;;30.20;58.90;;;;;;5157274;23;20046;-96
2021/07/19 17:17:47;;;;;;;12.35;3.33;;;30.30;59.00;;;;;;4983894;28;20094;-95
2021/07/19 17:25:20;;;;;;;5.37;2.43;;;30.00;59.30;;;;;;4978472;28;20054;-95
2021/07/19 17:27:47;;;;;;;3.20;2.28;;;29.90;59.70;;;;;;4979283;28;20046;-96
2021/07/19 17:30:13;;;;;;;7.22;3.42;;;29.90;59.80;;;;;;4981667;28;20029;-95
2021/07/19 17:32:39;;;;;;;11.25;3.17;;;29.90;59.90;;;;;;4976643;28;20031;-94
2021/07/19 17:35:08;;;;;;;5.72;3.03;;;30.00;59.70;;;;;;4972286;28;20082;-95
2021/07/19 17:37:35;;;;;;;5.82;2.70;;;30.00;59.70;;;;;;4973081;28;20039;-96
2021/07/19 17:40:02;;;;;;;7.30;3.20;;;30.10;59.70;;;;;;4967833;28;20035;-96
2021/07/19 17:42:27;;;;;;;5.47;3.00;;;30.10;59.40;;;;;;4968356;28;20118;-96
2021/07/19 17:44:54;;;;;;;6.95;2.85;;;30.10;59.20;;;;;;4967313;28;20034;-95
2021/07/19 17:47:19;;;;;;;4.43;2.88;;;30.10;59.30;;;;;;4962094;28;20034;-95
2021/07/19 17:49:45;;;;;;;5.05;3.03;;;30.10;59.20;;;;;;4961364;28;20027;-96
2021/07/19 17:52:11;;;;;;;6.03;2.83;;;30.10;59.30;;;;;;4944575;28;20507;-96
2021/07/19 17:54:55;;;;;;;6.60;2.97;;;30.00;60.10;;;;;;4960524;28;20033;-96
2021/07/19 17:57:20;;;;;;;5.00;3.05;;;29.90;59.70;;;;;;4958220;28;20512;-96
2021/07/19 17:59:47;;;;;;;6.93;2.85;;;29.80;59.70;;;;;;4959257;28;20034;-96
2021/07/19 18:02:13;;;;;;;5.53;2.95;;;29.70;59.60;;;;;;4957447;28;20019;-96
2021/07/19 18:04:39;;;;;;;13.02;3.15;;;29.70;59.70;;;;;;4958241;28;20444;-96
2021/07/19 18:07:04;;;;;;;7.22;3.22;;;29.70;59.80;;;;;;4959421;28;20027;-96
2021/07/19 18:09:30;;;;;;;6.55;2.53;;;29.70;59.80;;;;;;4962492;28;20461;-96
2021/07/19 18:11:57;;;;;;;3.97;2.70;;;29.70;59.90;;;;;;4962968;28;20046;-95
2021/07/19 18:14:23;;;;;;;8.48;3.33;;;29.60;59.90;;;;;;4963111;28;20117;-95
2021/07/19 18:16:49;;;;;;;5.85;2.83;;;29.60;59.80;;;;;;4961349;28;20497;-94
2021/07/19 18:19:20;;;;;;;8.75;2.97;;;29.50;59.80;;;;;;4961932;28;20516;-95
2021/07/19 18:24:44;;;;;;;7.50;3.43;;;29.30;60.00;;;;;;4984257;28;20046;-95
2021/07/19 18:32:41;;;;;;;8.45;3.13;;;29.10;61.00;;;;;;4982819;28;20125;-95
2021/07/19 18:35:08;;;;;;;8.63;3.60;;;29.00;61.50;;;;;;4962257;28;20055;-95
2021/07/19 18:37:33;;;;;;;10.70;3.72;;;29.00;61.90;;;;;;4977543;28;20030;-95
2021/07/19 18:39:59;;;;;;;8.27;3.20;;;28.90;62.30;;;;;;4980986;28;20042;-94
2021/07/19 18:42:25;;;;;;;9.00;3.30;;;28.80;62.60;;;;;;4971243;28;20027;-94
2021/07/19 18:44:52;;;;;;;7.40;4.22;;;28.80;62.50;;;;;;4969229;28;20057;-94
2021/07/19 18:47:19;;;;;;;7.57;4.30;;;28.70;62.80;;;;;;4971042;28;20050;-95
2021/07/19 18:49:46;;;;;;;6.97;3.50;;;28.60;63.00;;;;;;4970399;28;20031;-95
2021/07/19 18:52:13;;;;;;;5.00;3.05;;;28.60;63.70;;;;;;4969880;28;20029;-96
2021/07/19 18:54:39;;;;;;;6.22;3.20;;;28.60;64.20;;;;;;4970188;28;20019;-94
2021/07/19 18:57:05;;;;;;;5.55;3.00;;;28.60;64.40;;;;;;4970407;28;20081;-94
2021/07/19 18:59:31;;;;;;;5.65;3.00;;;28.70;64.70;;;;;;4975698;28;20046;-95
2021/07/19 19:01:56;;;;;;;7.38;2.60;;;28.70;64.80;;;;;;4979568;28;20391;-95
2021/07/19 19:04:22;;;;;;;7.53;3.08;;;28.70;64.70;;;;;;4980513;28;20032;-95
2021/07/19 19:06:47;;;;;;;4.53;2.55;;;28.60;64.70;;;;;;4980650;28;20030;-96
2021/07/19 19:09:13;;;;;;;3.45;2.47;;;28.60;64.90;;;;;;4979755;28;20030;-95
2021/07/19 19:11:41;;;;;;;7.28;3.00;;;28.50;64.90;;;;;;4980030;28;20029;-95
2021/07/19 19:14:08;;;;;;;13.55;3.08;;;28.40;65.20;;;;;;4979674;28;20085;-93
2021/07/19 19:16:35;;;;;;;8.40;3.95;;;28.30;65.40;;;;;;4979992;28;20031;-95
2021/07/19 19:19:03;;;;;;;8.38;3.35;;;28.30;65.90;;;;;;4979805;28;20408;-95
2021/07/19 19:21:30;;;;;;;6.90;3.15;;;28.20;66.20;;;;;;4980117;28;20026;-94
2021/07/19 19:23:55;;;;;;;7.22;3.60;;;28.10;66.60;;;;;;4984268;28;20061;-94
2021/07/19 19:26:22;;;;;;;6.95;3.88;;;28.10;67.00;;;;;;4988053;28;20023;-95
2021/07/19 19:28:49;;;;;;;7.57;3.88;;;28.00;67.30;;;;;;4985491;28;20037;-96
2021/07/19 19:31:16;;;;;;;8.90;3.55;;;27.90;67.60;;;;;;4985494;28;20042;-96
2021/07/19 19:33:42;;;;;;;12.07;4.13;;;27.80;68.00;;;;;;4987262;28;20035;-96
2021/07/19 19:36:08;;;;;;;5.35;3.15;;;27.70;68.40;;;;;;4986927;28;20030;-96
2021/07/19 19:38:34;;;;;;;7.25;3.60;;;27.60;68.70;;;;;;4982807;28;20043;-96
2021/07/19 19:41:00;;;;;;;6.60;3.35;;;27.50;69.10;;;;;;4982049;28;20407;-96
2021/07/19 19:43:31;;;;;;;6.70;2.80;;;27.50;69.40;;;;;;4982446;28;20037;-96
2021/07/19 19:45:57;;;;;;;5.97;3.72;;;27.40;69.50;;;;;;4975917;28;20026;-96
2021/07/19 19:48:26;;;;;;;9.75;2.78;;;27.30;69.70;;;;;;4971123;28;20026;-96
2021/07/19 19:51:00;;;;;;;4.45;2.83;;;27.20;69.90;;;;;;4970669;29;20031;-96
2021/07/19 19:54:17;;;;;;;8.77;3.53;;;27.20;70.20;;;;;;4993172;28;20069;-96
2021/07/19 19:57:04;;;;;;;5.00;2.55;;;27.10;70.70;;;;;;5277445;23;20063;-96
2021/07/19 19:59:30;;;;;;;4.30;3.10;;;27.00;70.80;;;;;;4955759;29;20035;-96
2021/07/19 20:02:09;;;;;;;5.53;2.85;;;27.00;71.10;;;;;;5223662;23;20106;-96
2021/07/19 20:04:35;;;;;;;7.05;3.20;;;26.90;71.30;;;;;;4979950;28;20062;-96
2021/07/19 20:07:01;;;;;;;11.35;3.08;;;26.80;71.40;;;;;;4969650;28;20023;-96
2021/07/19 20:14:38;;;;;;;9.60;3.67;;;26.60;72.10;;;;;;4978434;28;20547;-96
2021/07/19 20:17:04;;;;;;;5.95;3.20;;;26.50;72.30;;;;;;4969188;28;20035;-96
2021/07/19 20:19:30;;;;;;;9.82;3.47;;;26.40;72.70;;;;;;4968693;28;20497;-96
2021/07/19 20:21:56;;;;;;;6.80;3.38;;;26.40;73.20;;;;;;4986180;28;20092;-96
2021/07/19 20:24:22;;;;;;;7.88;3.63;;;26.30;73.50;;;;;;4982937;28;20018;-96
2021/07/19 20:26:48;;;;;;;7.30;3.58;;;26.20;73.90;;;;;;4970570;28;20039;-96
2021/07/19 20:29:18;;;;;;;9.98;3.60;;;26.00;74.20;;;;;;4958878;28;20484;-96
2021/07/19 20:31:43;;;;;;;5.20;2.85;;;26.00;74.60;;;;;;4969491;28;20035;-96
2021/07/19 20:34:09;;;;;;;7.50;3.40;;;25.90;75.10;;;;;;4983992;28;20019;-96
2021/07/19 20:36:37;;;;;;;8.10;3.00;;;25.80;75.40;;;;;;4981333;28;20087;-96
2021/07/19 20:39:05;;;;;;;7.05;3.40;;;25.70;75.80;;;;;;4969242;28;20066;-96
2021/07/19 20:41:31;;;;;;;7.97;3.42;;;25.60;76.20;;;;;;4976418;28;20023;-96
2021/07/19 20:43:57;;;;;;;5.22;3.05;;;25.50;76.50;;;;;;4980007;28;20098;-96
2021/07/19 20:46:22;;;;;;;4.75;2.90;;;25.40;76.90;;;;;;4973417;28;20058;-96
2021/07/19 20:48:48;;;;;;;8.65;3.47;;;25.40;77.10;;;;;;4974463;28;20026;-96
2021/07/19 20:51:14;;;;;;;10.57;4.18;;;25.40;78.00;;;;;;4979357;28;20110;-96
2021/07/19 20:53:49;;;;;;;5.88;3.80;;;25.30;77.50;;;;;;4988384;28;20058;-96
2021/07/19 20:56:15;;;;;;;6.55;3.60;;;25.20;77.90;;;;;;4957636;28;20014;-96
2021/07/19 20:58:41;;;;;;;9.18;4.20;;;25.10;78.20;;;;;;4957321;28;20041;-95
2021/07/19 21:01:07;;;;;;;9.50;4.32;;;25.00;78.60;;;;;;4956592;29;20107;-94
2021/07/19 21:03:33;;;;;;;8.00;3.90;;;24.90;79.00;;;;;;4944090;29;20040;-94